Time,TemperatureF,DewpointF,PressureIn,WindDirection,WindDirectionDegrees,WindSpeedMPH,WindSpeedGustMPH,Humidity,HourlyPrecipIn,Conditions,Clouds,dailyrainin,SoftwareType,DateUTC
2013-09-07 00:24:00,49.0,47.0,30.10,WSW,245,0.0,0.0,94,0.00,,,0.00,,2013-09-07 04:24:00,
2013-09-07 00:34:00,49.0,47.0,30.10,WSW,245,0.0,0.0,94,0.00,,,0.00,,2013-09-07 04:34:00,
2013-09-07 00:54:00,49.0,47.0,30.09,WSW,245,0.0,0.0,94,0.00,,,0.00,,2013-09-07 04:54:00,
2013-09-07 01:23:00,48.0,46.0,30.09,WSW,245,0.0,0.0,94,0.00,,,0.00,,2013-09-07 05:23:00,
2013-09-07 01:52:00,48.0,47.0,30.09,WSW,245,0.0,0.0,95,0.00,,,0.00,,2013-09-07 05:52:00,
2013-09-07 02:22:00,48.0,47.0,30.09,WSW,245,0.0,0.0,95,0.00,,,0.00,,2013-09-07 06:22:00,
2013-09-07 02:52:00,47.0,46.0,30.09,WSW,245,0.0,0.0,95,0.00,,,0.00,,2013-09-07 06:52:00,
2013-09-07 03:02:00,47.0,46.0,30.09,WSW,245,0.0,0.0,95,0.00,,,0.00,,2013-09-07 07:02:00,
2013-09-07 03:12:00,47.0,46.0,30.09,WSW,245,0.0,0.0,95,0.00,,,0.00,,2013-09-07 07:12:00,
2013-09-07 03:22:00,47.0,46.0,30.08,WSW,245,0.0,0.0,95,0.00,,,0.00,,2013-09-07 07:22:00,
2013-09-07 03:52:00,47.0,46.0,30.08,WSW,245,0.0,0.0,96,0.00,,,0.00,,2013-09-07 07:52:00,
2013-09-07 04:22:00,46.0,45.0,30.08,WSW,245,0.0,0.0,95,0.00,,,0.00,,2013-09-07 08:22:00,
2013-09-07 04:53:00,46.0,45.0,30.07,WSW,245,0.0,0.0,96,0.00,,,0.00,,2013-09-07 08:53:00,
2013-09-07 05:21:00,45.0,44.0,30.07,WSW,245,0.0,0.0,96,0.00,,,0.00,,2013-09-07 09:21:00,
2013-09-07 05:32:00,45.0,44.0,30.07,WSW,245,0.0,0.0,96,0.00,,,0.00,,2013-09-07 09:32:00,
2013-09-07 05:52:00,45.0,44.0,30.07,WSW,245,0.0,0.0,96,0.00,,,0.00,,2013-09-07 09:52:00,
2013-09-07 06:52:00,45.0,44.0,30.07,WSW,245,0.0,0.0,96,0.00,,,0.00,,2013-09-07 10:52:00,
2013-09-07 07:23:00,46.0,45.0,30.07,WSW,245,0.0,0.0,97,0.00,,,0.00,,2013-09-07 11:23:00,
2013-09-07 07:52:00,47.0,46.0,30.07,WSW,245,0.0,0.0,97,0.00,,,0.00,,2013-09-07 11:52:00,
2013-09-07 08:02:00,47.0,46.0,30.07,WSW,245,0.0,0.0,97,0.00,,,0.00,,2013-09-07 12:02:00,
2013-09-07 08:22:00,55.0,53.0,30.05,WSW,245,0.0,0.0,93,0.00,,,0.00,,2013-09-07 12:22:00,
2013-09-07 08:32:00,55.0,53.0,30.05,WSW,245,0.0,0.0,93,0.00,,,0.00,,2013-09-07 12:32:00,
2013-09-07 08:52:00,59.0,55.0,30.06,WSW,245,0.0,0.0,88,0.00,,,0.00,,2013-09-07 12:52:00,
2013-09-07 09:21:00,62.0,56.0,30.06,WSW,245,0.0,0.0,82,0.00,,,0.00,,2013-09-07 13:21:00,
2013-09-07 09:52:00,65.0,54.0,30.05,WSW,254,0.0,8.0,68,0.00,,,0.00,,2013-09-07 13:52:00,
2013-09-07 10:22:00,67.0,51.0,30.05,SW,231,0.0,8.0,57,0.00,,,0.00,,2013-09-07 14:22:00,
2013-09-07 10:52:00,68.0,52.0,30.04,West,268,0.0,8.0,56,0.00,,,0.00,,2013-09-07 14:52:00,
2013-09-07 11:23:00,68.0,54.0,30.03,WSW,249,9.0,9.0,60,0.00,,,0.00,,2013-09-07 15:23:00,
2013-09-07 11:54:00,68.0,54.0,30.03,SW,229,7.0,8.0,62,0.00,,,0.00,,2013-09-07 15:54:00,
2013-09-07 12:03:00,68.0,54.0,30.03,SW,229,7.0,8.0,62,0.00,,,0.00,,2013-09-07 16:03:00,
2013-09-07 12:24:00,68.0,54.0,30.02,SW,227,17.0,17.0,60,0.00,,,0.00,,2013-09-07 16:24:00,
2013-09-07 12:53:00,69.0,55.0,30.00,SW,232,2.0,13.0,60,0.00,,,0.00,,2013-09-07 16:53:00,
2013-09-07 13:24:00,69.0,55.0,29.99,WSW,238,8.0,13.0,62,0.00,,,0.00,,2013-09-07 17:24:00,
2013-09-07 13:52:00,69.0,55.0,29.98,WSW,247,16.0,17.0,62,0.00,,,0.00,,2013-09-07 17:52:00,
2013-09-07 14:22:00,70.0,54.0,29.97,WSW,242,12.0,17.0,57,0.00,,,0.00,,2013-09-07 18:22:00,
2013-09-07 14:52:00,71.0,55.0,29.96,West,259,8.0,12.0,57,0.00,,,0.00,,2013-09-07 18:52:00,
2013-09-07 15:11:00,71.0,52.0,29.95,WSW,246,0.0,12.0,52,0.00,,,0.00,,2013-09-07 19:11:00,
2013-09-07 15:22:00,71.0,52.0,29.95,WSW,246,0.0,12.0,52,0.00,,,0.00,,2013-09-07 19:22:00,
2013-09-07 15:53:00,71.0,52.0,29.95,West,270,3.0,9.0,52,0.00,,,0.00,,2013-09-07 19:53:00,
2013-09-07 16:22:00,71.0,54.0,29.94,SW,235,10.0,10.0,54,0.00,,,0.00,,2013-09-07 20:22:00,
2013-09-07 16:53:00,71.0,55.0,29.93,SSW,206,0.0,10.0,58,0.00,,,0.00,,2013-09-07 20:53:00,
2013-09-07 17:22:00,70.0,57.0,29.92,SW,230,6.0,10.0,63,0.00,,,0.00,,2013-09-07 21:22:00,
2013-09-07 17:54:00,69.0,59.0,29.92,SSW,196,6.0,9.0,70,0.00,,,0.00,,2013-09-07 21:54:00,
2013-09-07 18:13:00,68.0,58.0,29.92,SW,226,8.0,9.0,71,0.00,,,0.00,,2013-09-07 22:13:00,
2013-09-07 18:24:00,68.0,58.0,29.92,SW,226,8.0,9.0,71,0.00,,,0.00,,2013-09-07 22:24:00,
2013-09-07 18:33:00,68.0,58.0,29.92,SW,226,8.0,9.0,71,0.00,,,0.00,,2013-09-07 22:33:00,
2013-09-07 18:53:00,67.0,58.0,29.91,SW,230,2.0,7.0,74,0.00,,,0.00,,2013-09-07 22:53:00,
2013-09-07 19:03:00,67.0,58.0,29.91,SW,230,2.0,7.0,74,0.00,,,0.00,,2013-09-07 23:03:00,
2013-09-07 19:23:00,66.0,59.0,29.91,SW,224,3.0,7.0,78,0.00,,,0.00,,2013-09-07 23:23:00,
2013-09-07 19:53:00,65.0,58.0,29.91,SW,220,0.0,5.0,77,0.00,,,0.00,,2013-09-07 23:53:00,
2013-09-07 20:22:00,66.0,58.0,29.90,SSW,201,3.0,5.0,76,0.00,,,0.00,,2013-09-08 00:22:00,
2013-09-07 20:52:00,66.0,59.0,29.91,WSW,252,0.0,8.0,77,0.00,,,0.00,,2013-09-08 00:52:00,
2013-09-07 21:22:00,66.0,59.0,29.91,SW,226,2.0,8.0,77,0.00,,,0.00,,2013-09-08 01:22:00,
2013-09-07 21:52:00,66.0,60.0,29.91,SW,218,2.0,7.0,80,0.00,,,0.00,,2013-09-08 01:52:00,
2013-09-07 22:23:00,66.0,59.0,29.90,WSW,242,3.0,7.0,79,0.00,,,0.00,,2013-09-08 02:23:00,
2013-09-07 22:52:00,65.0,60.0,29.89,SW,219,0.0,5.0,84,0.00,,,0.00,,2013-09-08 02:52:00,
2013-09-07 23:03:00,65.0,60.0,29.89,SW,219,0.0,5.0,84,0.00,,,0.00,,2013-09-08 03:03:00,
2013-09-07 23:23:00,66.0,61.0,29.89,SW,230,2.0,5.0,83,0.00,,,0.00,,2013-09-08 03:23:00,
2013-09-07 23:54:00,66.0,61.0,29.88,SSW,210,5.0,7.0,83,0.00,,,0.00,,2013-09-08 03:54:00,